createdAt,value
2023-07-21T00:00:22.669Z,69.40
2023-07-21T00:01:17.464Z,69.14
2023-07-21T00:02:08.334Z,69.16
2023-07-21T00:02:59.605Z,68.80
2023-07-21T00:03:50.605Z,68.83
2023-07-21T00:04:41.318Z,68.69
2023-07-21T00:05:32.461Z,68.54
2023-07-21T00:06:25.972Z,68.47
2023-07-21T00:07:16.857Z,68.45
2023-07-21T00:08:09.863Z,68.68
2023-07-21T00:09:00.328Z,68.67
2023-07-21T00:09:51.142Z,69.13
2023-07-21T00:10:43.777Z,69.65
2023-07-21T00:11:34.408Z,69.47
2023-07-21T00:12:25.391Z,69.50
2023-07-21T00:13:16.236Z,69.76
2023-07-21T00:14:07.167Z,69.19
2023-07-21T00:14:57.988Z,70.10
2023-07-21T00:15:50.334Z,69.97
2023-07-21T00:16:41.169Z,69.59
2023-07-21T00:17:33.429Z,69.83
2023-07-21T00:18:25.001Z,70.14
2023-07-21T00:19:15.816Z,69.87
2023-07-21T00:20:21.254Z,70.04
2023-07-21T00:21:13.227Z,70.18
2023-07-21T00:22:03.992Z,70.81
2023-07-21T00:22:55.032Z,70.58
2023-07-21T00:23:47.730Z,70.55
2023-07-21T00:24:38.322Z,70.37
2023-07-21T00:25:29.072Z,69.77
2023-07-21T00:26:20.317Z,69.78
2023-07-21T00:27:12.586Z,70.73
2023-07-21T00:28:03.470Z,70.64
2023-07-21T00:28:58.161Z,70.02
2023-07-21T00:29:51.118Z,70.25
2023-07-21T00:30:42.365Z,69.96
2023-07-21T00:31:33.543Z,69.95
2023-07-21T00:32:24.525Z,69.98
2023-07-21T00:33:16.308Z,70.01
2023-07-21T00:34:09.935Z,69.72
2023-07-21T00:35:02.876Z,70.37
2023-07-21T00:35:53.658Z,69.94
2023-07-21T00:36:47.230Z,70.16
2023-07-21T00:37:39.297Z,69.76
2023-07-21T00:38:30.356Z,69.69
2023-07-21T00:39:21.165Z,69.61
2023-07-21T00:40:17.177Z,70.09
2023-07-21T00:41:08.537Z,69.66
2023-07-21T00:41:59.570Z,70.18
2023-07-21T00:42:50.604Z,69.91
2023-07-21T00:43:41.423Z,69.98
2023-07-21T00:44:32.164Z,69.81
2023-07-21T00:45:23.243Z,70.12
2023-07-21T00:46:14.410Z,69.54
2023-07-21T00:47:06.082Z,69.40
2023-07-21T00:47:57.613Z,70.02
2023-07-21T00:48:48.886Z,69.91
2023-07-21T00:49:43.077Z,70.09
2023-07-21T00:50:33.751Z,69.99
2023-07-21T00:51:24.418Z,70.65
2023-07-21T00:52:18.721Z,70.07
2023-07-21T00:53:14.708Z,69.55
2023-07-21T00:54:06.418Z,69.79
2023-07-21T00:54:57.511Z,69.62
2023-07-21T00:55:49.924Z,70.15
2023-07-21T00:56:43.574Z,69.58
2023-07-21T00:57:36.668Z,69.91
2023-07-21T00:58:27.639Z,70.17
2023-07-21T00:59:18.444Z,69.91
2023-07-21T01:00:13.588Z,70.04
2023-07-21T01:01:05.611Z,70.23
2023-07-21T01:01:57.619Z,69.74
2023-07-21T01:02:50.968Z,70.49
2023-07-21T01:03:42.588Z,70.45
2023-07-21T01:04:35.142Z,70.79
2023-07-21T01:05:26.680Z,71.17
2023-07-21T01:06:17.915Z,70.80
2023-07-21T01:07:10.649Z,70.94
2023-07-21T01:08:08.983Z,70.83
2023-07-21T01:09:03.338Z,70.82
2023-07-21T01:09:54.249Z,70.95
2023-07-21T01:10:48.957Z,70.19
2023-07-21T01:11:40.415Z,70.09
2023-07-21T01:12:31.869Z,70.62
2023-07-21T01:13:23.291Z,70.61
2023-07-21T01:14:14.131Z,70.86
2023-07-21T01:15:05.746Z,70.13
2023-07-21T01:15:57.825Z,69.81
2023-07-21T01:16:50.034Z,70.30
2023-07-21T01:17:42.054Z,70.17
2023-07-21T01:18:34.477Z,70.02
2023-07-21T01:19:26.412Z,70.29
2023-07-21T01:20:23.593Z,69.65
2023-07-21T01:21:21.657Z,69.68
2023-07-21T01:22:35.341Z,70.63
2023-07-21T01:23:38.588Z,70.55
2023-07-21T01:25:10.595Z,70.33
2023-07-21T01:26:01.999Z,70.20
2023-07-21T01:26:55.896Z,71.03
2023-07-21T01:27:49.643Z,70.98
2023-07-21T01:28:44.650Z,71.22
2023-07-21T01:29:36.985Z,72.10
2023-07-21T01:30:30.335Z,71.96
2023-07-21T01:31:22.576Z,71.76
2023-07-21T01:32:16.511Z,71.07
2023-07-21T01:33:09.142Z,71.22
2023-07-21T01:34:00.549Z,71.42
2023-07-21T01:34:53.051Z,70.92
2023-07-21T01:35:45.129Z,71.07
2023-07-21T01:36:37.812Z,70.80
2023-07-21T01:37:29.274Z,70.38
2023-07-21T01:38:21.875Z,70.22
2023-07-21T01:39:13.753Z,70.99
2023-07-21T01:40:10.648Z,70.49
2023-07-21T01:41:03.139Z,70.99
2023-07-21T01:41:56.679Z,70.93
2023-07-21T01:42:51.085Z,71.19
2023-07-21T01:43:42.195Z,71.14
2023-07-21T01:44:34.007Z,70.73
2023-07-21T01:45:25.225Z,71.87
2023-07-21T01:46:17.037Z,71.13
2023-07-21T01:47:08.210Z,71.11
2023-07-21T01:47:59.460Z,71.24
2023-07-21T01:48:50.187Z,71.80
2023-07-21T01:49:41.118Z,70.96
2023-07-21T01:50:32.954Z,71.34
2023-07-21T01:51:25.883Z,71.31
2023-07-21T01:52:18.163Z,71.56
2023-07-21T01:53:15.026Z,71.64
2023-07-21T01:54:12.922Z,70.83
2023-07-21T01:55:34.190Z,70.56
2023-07-21T01:56:33.135Z,71.08
2023-07-21T01:57:31.469Z,71.33
2023-07-21T01:58:22.963Z,71.73
2023-07-21T01:59:15.747Z,71.75
2023-07-21T02:00:14.362Z,72.18
2023-07-21T02:01:12.757Z,72.00
2023-07-21T02:02:04.129Z,72.40
2023-07-21T02:02:56.659Z,71.79
2023-07-21T02:03:48.871Z,71.71
2023-07-21T02:04:39.968Z,72.42
2023-07-21T02:05:30.767Z,73.01
2023-07-21T02:06:21.374Z,72.36
2023-07-21T02:07:12.612Z,72.54
2023-07-21T02:08:03.659Z,71.75
2023-07-21T02:08:54.233Z,72.61
2023-07-21T02:09:45.062Z,71.75
2023-07-21T02:10:37.324Z,72.62
2023-07-21T02:11:37.425Z,73.03
2023-07-21T02:12:51.153Z,72.74
2023-07-21T02:13:42.112Z,72.43
2023-07-21T02:14:32.810Z,72.40
2023-07-21T02:15:23.820Z,72.80
2023-07-21T02:16:15.475Z,71.90
2023-07-21T02:17:07.095Z,72.40
2023-07-21T02:17:59.590Z,72.80
2023-07-21T02:18:50.427Z,71.77
2023-07-21T02:19:41.271Z,72.25
2023-07-21T02:20:33.096Z,71.96
2023-07-21T02:21:23.842Z,72.66
2023-07-21T02:22:14.996Z,72.53
2023-07-21T02:23:06.314Z,72.31
2023-07-21T02:23:57.054Z,72.42
2023-07-21T02:24:47.919Z,72.00
2023-07-21T02:25:38.871Z,72.24
2023-07-21T02:26:30.330Z,72.31
2023-07-21T02:27:23.392Z,72.68
2023-07-21T02:28:14.079Z,72.18
2023-07-21T02:29:05.074Z,73.38
2023-07-21T02:29:56.978Z,72.94
2023-07-21T02:30:58.216Z,72.67
2023-07-21T02:31:50.721Z,72.29
2023-07-21T02:32:41.655Z,72.33
2023-07-21T02:33:32.934Z,72.38
2023-07-21T02:34:23.702Z,72.39
2023-07-21T02:35:14.765Z,72.83
2023-07-21T02:36:07.964Z,72.15
2023-07-21T02:37:00.250Z,72.38
2023-07-21T02:37:51.069Z,72.59
2023-07-21T02:38:43.964Z,71.98
2023-07-21T02:39:35.043Z,71.13
2023-07-21T02:40:26.055Z,72.03
2023-07-21T02:41:17.066Z,72.67
2023-07-21T02:42:08.385Z,72.45
2023-07-21T02:42:59.720Z,72.48
2023-07-21T02:43:50.472Z,72.75
2023-07-21T02:44:42.099Z,73.01
2023-07-21T02:45:32.935Z,72.17
2023-07-21T02:46:24.488Z,72.89
2023-07-21T02:47:19.865Z,72.79
2023-07-21T02:48:11.221Z,72.57
2023-07-21T02:49:02.453Z,73.08
2023-07-21T02:49:53.433Z,73.24
2023-07-21T02:50:56.736Z,72.67
2023-07-21T02:51:48.105Z,72.82
2023-07-21T02:52:40.224Z,72.32
2023-07-21T02:53:30.844Z,72.59
2023-07-21T02:54:24.998Z,72.41
2023-07-21T02:55:18.469Z,71.96
2023-07-21T02:56:10.310Z,72.56
2023-07-21T02:57:36.521Z,72.25
2023-07-21T02:58:28.841Z,72.35
2023-07-21T02:59:22.195Z,72.30
2023-07-21T03:00:14.047Z,71.79
2023-07-21T03:01:16.612Z,71.43
2023-07-21T03:02:07.509Z,72.03
2023-07-21T03:03:10.476Z,72.34
2023-07-21T03:04:04.093Z,72.25
2023-07-21T03:05:00.956Z,71.93
2023-07-21T03:05:53.128Z,71.19
2023-07-21T03:06:47.621Z,71.93
2023-07-21T03:07:40.370Z,71.80
2023-07-21T03:08:31.598Z,72.28
2023-07-21T03:09:30.553Z,72.23
2023-07-21T03:10:21.636Z,72.60
2023-07-21T03:11:14.536Z,72.23
2023-07-21T03:12:31.772Z,72.54
2023-07-21T03:13:37.932Z,72.40
2023-07-21T03:14:28.777Z,72.70
2023-07-21T03:15:19.561Z,72.69
2023-07-21T03:16:19.957Z,72.93
2023-07-21T03:17:17.001Z,72.24
2023-07-21T03:18:08.084Z,72.38
2023-07-21T03:19:13.171Z,71.91
2023-07-21T03:20:13.225Z,72.46
2023-07-21T03:21:04.417Z,72.12
2023-07-21T03:21:55.742Z,71.73
2023-07-21T03:22:47.063Z,72.00
2023-07-21T03:23:38.667Z,72.29
2023-07-21T03:24:29.753Z,72.88
2023-07-21T03:25:21.173Z,72.23
2023-07-21T03:26:12.393Z,72.85
2023-07-21T03:27:07.354Z,72.64
2023-07-21T03:28:01.194Z,72.49
2023-07-21T03:28:53.810Z,72.54
2023-07-21T03:29:52.476Z,72.91
2023-07-21T03:30:44.689Z,72.66
2023-07-21T03:31:43.569Z,72.80
2023-07-21T03:32:38.254Z,73.30
2023-07-21T03:33:29.699Z,73.69
2023-07-21T03:34:32.395Z,73.21
2023-07-21T03:35:23.266Z,73.23
2023-07-21T03:36:17.675Z,72.61
2023-07-21T03:37:09.696Z,73.46
2023-07-21T03:38:03.224Z,73.17
2023-07-21T03:38:54.302Z,73.18
2023-07-21T03:39:46.062Z,72.34
2023-07-21T03:40:37.528Z,72.46
2023-07-21T03:41:29.942Z,72.91
2023-07-21T03:42:20.842Z,73.11
2023-07-21T03:43:11.364Z,72.83
2023-07-21T03:44:02.221Z,73.03
2023-07-21T03:44:53.183Z,72.79
2023-07-21T03:45:43.636Z,72.85
2023-07-21T03:46:34.433Z,73.14
2023-07-21T03:47:36.064Z,72.17
2023-07-21T03:48:29.357Z,71.96
2023-07-21T03:49:21.186Z,70.57
2023-07-21T03:50:18.295Z,71.24
2023-07-21T03:51:09.081Z,70.41
2023-07-21T03:52:06.800Z,70.19
2023-07-21T03:52:58.650Z,70.53
2023-07-21T03:53:49.877Z,70.36
2023-07-21T03:54:43.794Z,69.91
2023-07-21T03:55:34.921Z,69.32
2023-07-21T03:56:28.494Z,67.36
2023-07-21T03:57:21.048Z,66.62
2023-07-21T03:58:11.659Z,65.49
2023-07-21T03:59:02.679Z,64.16
2023-07-21T03:59:54.137Z,63.35
2023-07-21T04:00:45.251Z,63.43
2023-07-21T04:01:35.779Z,62.94
2023-07-21T04:02:27.020Z,63.72
2023-07-21T04:03:19.793Z,64.93
2023-07-21T04:04:10.860Z,64.74
2023-07-21T04:05:01.698Z,65.14
2023-07-21T04:05:53.334Z,64.95
2023-07-21T04:06:45.186Z,64.87
2023-07-21T04:07:35.973Z,64.88
2023-07-21T04:08:26.517Z,64.58
2023-07-21T04:09:17.663Z,64.06
2023-07-21T04:10:09.012Z,63.52
2023-07-21T04:10:59.608Z,62.72
2023-07-21T04:11:50.804Z,63.15
2023-07-21T04:12:41.437Z,62.68
2023-07-21T04:13:32.201Z,62.48
2023-07-21T04:14:23.048Z,63.86
2023-07-21T04:15:15.723Z,65.18
2023-07-21T04:16:08.262Z,65.21
2023-07-21T04:16:59.078Z,65.04
2023-07-21T04:17:49.829Z,65.73
2023-07-21T04:18:40.775Z,65.94
2023-07-21T04:19:32.394Z,65.80
2023-07-21T04:20:25.876Z,65.89
2023-07-21T04:21:16.581Z,66.62
2023-07-21T04:22:08.504Z,65.95
2023-07-21T04:23:01.060Z,66.87
2023-07-21T04:23:52.807Z,67.25
2023-07-21T04:24:44.180Z,67.49
2023-07-21T04:25:35.750Z,67.22
2023-07-21T04:26:27.685Z,67.42
2023-07-21T04:27:18.467Z,67.92
2023-07-21T04:28:09.250Z,67.47
2023-07-21T04:29:03.008Z,67.59
2023-07-21T04:29:56.291Z,68.17
2023-07-21T04:30:48.497Z,67.65
2023-07-21T04:31:40.308Z,67.39
2023-07-21T04:32:39.619Z,67.58
2023-07-21T04:33:33.093Z,67.45
2023-07-21T04:34:25.522Z,67.96
2023-07-21T04:35:17.641Z,68.05
2023-07-21T04:36:10.050Z,68.81
2023-07-21T04:37:01.326Z,68.96
2023-07-21T04:37:58.379Z,69.33
2023-07-21T04:38:53.132Z,68.94
2023-07-21T04:39:45.110Z,68.58
2023-07-21T04:40:35.947Z,68.59
2023-07-21T04:41:28.313Z,68.73
2023-07-21T04:42:19.552Z,68.69
2023-07-21T04:43:10.491Z,68.85
2023-07-21T04:44:01.534Z,68.49
2023-07-21T04:44:52.444Z,67.78
2023-07-21T04:45:44.164Z,67.00
2023-07-21T04:46:42.865Z,67.25
2023-07-21T04:47:33.674Z,67.66
2023-07-21T04:48:28.544Z,67.84
2023-07-21T04:49:19.786Z,67.02
2023-07-21T04:50:12.290Z,67.83
2023-07-21T04:51:05.374Z,67.57
2023-07-21T04:51:59.532Z,67.80
2023-07-21T04:52:50.356Z,67.55
2023-07-21T04:53:43.461Z,67.49
2023-07-21T04:54:35.530Z,68.44
2023-07-21T04:55:27.958Z,68.12
2023-07-21T04:56:21.879Z,68.45
2023-07-21T04:57:18.976Z,68.46
2023-07-21T04:58:09.649Z,68.14
2023-07-21T04:59:00.566Z,68.15
2023-07-21T04:59:51.401Z,68.15
2023-07-21T05:00:42.291Z,68.66
2023-07-21T05:01:35.296Z,68.83
2023-07-21T05:02:29.284Z,68.62
2023-07-21T05:03:21.655Z,67.77
2023-07-21T05:04:12.912Z,68.58
2023-07-21T05:05:05.625Z,68.61
2023-07-21T05:06:00.389Z,68.84
2023-07-21T05:06:51.692Z,68.45
2023-07-21T05:07:42.287Z,69.36
2023-07-21T05:08:33.149Z,68.35
2023-07-21T05:09:26.099Z,68.70
2023-07-21T05:10:18.010Z,68.17
2023-07-21T05:11:10.984Z,68.50
2023-07-21T05:12:02.956Z,67.62
2023-07-21T05:13:07.356Z,68.04
2023-07-21T05:14:19.704Z,68.54
2023-07-21T05:15:25.893Z,68.23
2023-07-21T05:16:25.292Z,68.07
2023-07-21T05:17:39.626Z,68.11
2023-07-21T05:18:51.485Z,68.30
2023-07-21T05:20:09.063Z,67.98
2023-07-21T05:21:23.240Z,68.96
2023-07-21T05:22:21.149Z,69.13
2023-07-21T05:23:27.401Z,68.43
2023-07-21T05:24:34.383Z,68.60
2023-07-21T05:25:28.008Z,68.32
2023-07-21T05:26:19.175Z,69.08
2023-07-21T05:27:10.221Z,67.85
2023-07-21T05:28:16.244Z,67.42
2023-07-21T05:29:10.251Z,68.33
2023-07-21T05:30:07.408Z,67.37
2023-07-21T05:31:02.091Z,67.69
2023-07-21T05:32:06.779Z,67.85
2023-07-21T05:32:58.661Z,67.65
2023-07-21T05:33:51.653Z,68.06
2023-07-21T05:34:43.624Z,67.98
2023-07-21T05:35:34.808Z,68.20
2023-07-21T05:36:35.960Z,69.08
2023-07-21T05:37:26.652Z,68.37
2023-07-21T05:38:17.995Z,68.12
2023-07-21T05:39:08.689Z,69.14
2023-07-21T05:39:59.773Z,69.06
2023-07-21T05:41:00.561Z,68.93
2023-07-21T05:41:58.872Z,69.94
2023-07-21T05:42:52.886Z,68.82
2023-07-21T05:43:44.302Z,68.46
2023-07-21T05:44:35.749Z,68.26
2023-07-21T05:45:26.974Z,67.91
2023-07-21T05:46:18.747Z,68.25
2023-07-21T05:47:20.478Z,68.73
2023-07-21T05:48:16.152Z,68.92
2023-07-21T05:49:11.097Z,67.88
2023-07-21T05:50:04.037Z,68.71
2023-07-21T05:50:58.955Z,69.38
2023-07-21T05:51:50.278Z,68.95
2023-07-21T05:52:56.243Z,69.04
2023-07-21T05:53:50.631Z,69.81
2023-07-21T05:54:45.342Z,69.05
2023-07-21T05:55:36.780Z,68.27
2023-07-21T05:56:27.834Z,68.63
2023-07-21T05:57:30.675Z,68.26
2023-07-21T05:58:24.013Z,68.44
2023-07-21T05:59:15.030Z,68.06
2023-07-21T06:00:06.706Z,68.26
2023-07-21T06:01:04.788Z,68.38
2023-07-21T06:01:59.666Z,69.02
2023-07-21T06:02:53.350Z,69.52
2023-07-21T06:03:44.303Z,69.03
2023-07-21T06:04:34.957Z,68.92
2023-07-21T06:05:41.001Z,69.28
2023-07-21T06:06:32.306Z,68.75
2023-07-21T06:08:01.110Z,69.07
2023-07-21T06:09:10.823Z,69.01
2023-07-21T06:10:14.624Z,69.01
2023-07-21T06:11:21.040Z,68.42
2023-07-21T06:12:19.083Z,68.41
2023-07-21T06:13:36.164Z,67.90
2023-07-21T06:14:50.283Z,67.77
2023-07-21T06:15:52.731Z,68.25
2023-07-21T06:16:53.159Z,67.05
2023-07-21T06:17:43.979Z,67.61
2023-07-21T06:18:36.758Z,66.73
2023-07-21T06:19:28.092Z,67.61
2023-07-21T06:20:23.674Z,67.53
2023-07-21T06:21:14.456Z,68.18
2023-07-21T06:22:08.736Z,68.62
2023-07-21T06:23:02.150Z,66.85
2023-07-21T06:23:54.755Z,67.46
2023-07-21T06:24:46.882Z,67.75
2023-07-21T06:25:37.777Z,67.76
2023-07-21T06:26:33.794Z,67.42
2023-07-21T06:27:28.765Z,67.19
2023-07-21T06:28:19.787Z,67.27
2023-07-21T06:29:10.724Z,66.88
2023-07-21T06:30:01.529Z,67.35
2023-07-21T06:30:59.438Z,66.78
2023-07-21T06:32:12.180Z,67.19
2023-07-21T06:33:32.568Z,66.99
2023-07-21T06:34:43.657Z,67.50
2023-07-21T06:35:51.476Z,67.57
2023-07-21T06:37:11.863Z,68.07
2023-07-21T06:38:25.774Z,68.81
2023-07-21T06:39:37.130Z,69.19
2023-07-21T06:40:32.096Z,69.17
2023-07-21T06:41:54.665Z,70.55
2023-07-21T06:43:04.083Z,70.47
2023-07-21T06:43:54.768Z,70.26
2023-07-21T06:44:57.931Z,70.02
2023-07-21T06:45:59.656Z,69.62
2023-07-21T06:47:09.324Z,69.65
2023-07-21T06:48:25.948Z,69.52
2023-07-21T06:49:28.948Z,67.81
2023-07-21T06:50:25.325Z,68.59
2023-07-21T06:51:17.962Z,67.93
2023-07-21T06:52:10.128Z,67.35
2023-07-21T06:53:00.720Z,67.19
2023-07-21T06:53:52.351Z,67.16
2023-07-21T06:54:42.950Z,67.41
2023-07-21T06:55:34.608Z,67.33
2023-07-21T06:56:25.161Z,67.57
2023-07-21T06:57:16.007Z,67.08
2023-07-21T06:58:06.965Z,66.75
2023-07-21T06:58:57.787Z,66.63
2023-07-21T06:59:48.670Z,66.08
2023-07-21T07:00:41.741Z,65.56
2023-07-21T07:01:32.923Z,65.18
2023-07-21T07:02:23.687Z,65.24
2023-07-21T07:03:14.671Z,64.92
2023-07-21T07:04:06.768Z,65.23
2023-07-21T07:04:57.669Z,65.88
2023-07-21T07:05:50.157Z,65.31
2023-07-21T07:06:42.181Z,64.75
2023-07-21T07:07:32.572Z,64.05
2023-07-21T07:08:23.530Z,63.70
2023-07-21T07:09:15.639Z,64.07
2023-07-21T07:10:07.398Z,64.11
2023-07-21T07:10:58.177Z,64.48
2023-07-21T07:11:49.485Z,65.02
2023-07-21T07:12:40.295Z,64.78
2023-07-21T07:13:31.220Z,65.20
2023-07-21T07:14:22.221Z,64.85
2023-07-21T07:15:12.878Z,65.22
2023-07-21T07:16:04.404Z,65.19
2023-07-21T07:16:55.170Z,65.19
2023-07-21T07:17:46.430Z,64.99
2023-07-21T07:18:37.243Z,65.03
2023-07-21T07:19:28.649Z,65.57
2023-07-21T07:20:19.407Z,65.02
2023-07-21T07:21:10.274Z,64.42
2023-07-21T07:22:02.659Z,65.27
2023-07-21T07:22:53.870Z,64.65
2023-07-21T07:23:44.550Z,64.70
2023-07-21T07:24:36.131Z,64.78
2023-07-21T07:25:28.107Z,64.63
2023-07-21T07:26:19.263Z,64.09
2023-07-21T07:27:10.882Z,64.56
2023-07-21T07:28:01.783Z,64.19
2023-07-21T07:28:52.457Z,65.03
2023-07-21T07:29:43.259Z,66.24
2023-07-21T07:30:37.051Z,65.68
2023-07-21T07:31:28.210Z,65.45
2023-07-21T07:32:19.228Z,64.90
2023-07-21T07:33:10.088Z,65.77
2023-07-21T07:34:00.903Z,65.91
2023-07-21T07:34:56.526Z,65.46
2023-07-21T07:35:53.641Z,65.34
2023-07-21T07:36:44.745Z,64.91
2023-07-21T07:37:35.750Z,65.94
2023-07-21T07:38:28.440Z,67.28
2023-07-21T07:39:19.785Z,68.09
2023-07-21T07:40:11.497Z,67.15
2023-07-21T07:41:04.871Z,68.18
2023-07-21T07:41:55.898Z,68.76
2023-07-21T07:42:47.683Z,69.28
2023-07-21T07:43:38.342Z,69.21
2023-07-21T07:44:29.184Z,69.11
2023-07-21T07:45:19.974Z,72.52
2023-07-21T07:46:10.908Z,70.44
2023-07-21T07:47:01.944Z,70.14
2023-07-21T07:47:54.175Z,71.95
2023-07-21T07:48:49.253Z,71.42
2023-07-21T07:49:40.339Z,71.36
2023-07-21T07:50:31.175Z,71.93
2023-07-21T07:51:21.931Z,70.70
2023-07-21T07:52:13.016Z,71.29
2023-07-21T07:53:03.886Z,70.53
2023-07-21T07:53:54.685Z,70.33
2023-07-21T07:54:48.352Z,70.44
2023-07-21T07:55:39.514Z,70.81
2023-07-21T07:56:30.555Z,71.84
2023-07-21T07:57:21.385Z,70.97
2023-07-21T07:58:12.617Z,71.35
2023-07-21T07:59:03.682Z,70.14
2023-07-21T07:59:55.172Z,71.30
2023-07-21T08:00:46.821Z,70.95
2023-07-21T08:01:37.547Z,69.99
2023-07-21T08:02:28.542Z,69.64
2023-07-21T08:03:19.435Z,69.47
2023-07-21T08:04:11.322Z,70.36
2023-07-21T08:05:02.447Z,69.98
2023-07-21T08:05:53.245Z,70.85
2023-07-21T08:06:44.361Z,69.85
2023-07-21T08:07:35.399Z,70.11
2023-07-21T08:08:27.335Z,69.48
2023-07-21T08:09:18.208Z,69.51
2023-07-21T08:10:09.836Z,69.56
2023-07-21T08:11:02.927Z,69.12
2023-07-21T08:11:53.649Z,69.03
2023-07-21T08:12:44.577Z,69.99
2023-07-21T08:13:36.187Z,71.76
2023-07-21T08:14:27.540Z,69.53
2023-07-21T08:15:18.452Z,70.08
2023-07-21T08:16:11.166Z,70.08
2023-07-21T08:17:03.763Z,70.14
2023-07-21T08:17:54.979Z,68.16
2023-07-21T08:18:46.103Z,69.48
2023-07-21T08:19:36.935Z,69.01
2023-07-21T08:20:27.812Z,70.96
2023-07-21T08:21:20.035Z,70.73
2023-07-21T08:22:11.449Z,70.00
2023-07-21T08:23:04.835Z,69.17
2023-07-21T08:24:00.002Z,69.99
2023-07-21T08:24:51.100Z,69.26
2023-07-21T08:25:42.603Z,69.64
2023-07-21T08:26:33.629Z,67.61
2023-07-21T08:27:27.012Z,69.17
2023-07-21T08:28:17.586Z,69.09
2023-07-21T08:29:10.284Z,70.32
2023-07-21T08:30:01.506Z,68.45
2023-07-21T08:30:58.746Z,67.95
2023-07-21T08:31:50.684Z,68.95
2023-07-21T08:32:42.898Z,69.89
2023-07-21T08:33:33.997Z,72.58
2023-07-21T08:34:25.133Z,71.06
2023-07-21T08:35:16.178Z,71.43
2023-07-21T08:36:07.156Z,72.53
2023-07-21T08:36:57.792Z,70.50
2023-07-21T08:37:48.756Z,70.74
2023-07-21T08:38:39.726Z,69.97
2023-07-21T08:39:31.480Z,72.74
2023-07-21T08:40:24.057Z,72.42
2023-07-21T08:41:19.004Z,70.79
2023-07-21T08:42:13.327Z,71.38
2023-07-21T08:43:04.613Z,71.29
2023-07-21T08:43:59.806Z,72.89
2023-07-21T08:44:51.803Z,72.03
2023-07-21T08:45:45.145Z,72.41
2023-07-21T08:46:36.005Z,73.29
2023-07-21T08:47:27.000Z,72.51
2023-07-21T08:48:18.989Z,71.15
2023-07-21T08:49:11.431Z,72.05
2023-07-21T08:50:05.209Z,71.63
2023-07-21T08:50:57.131Z,72.96
2023-07-21T08:51:47.953Z,72.45
2023-07-21T08:52:38.844Z,69.59
2023-07-21T08:53:29.669Z,73.22
2023-07-21T08:54:20.553Z,72.56
2023-07-21T08:55:11.212Z,72.04
2023-07-21T08:56:04.256Z,72.24
2023-07-21T08:56:54.682Z,72.04
2023-07-21T08:57:45.397Z,73.02
2023-07-21T08:58:37.033Z,73.33
2023-07-21T08:59:27.754Z,73.37
2023-07-21T09:00:22.269Z,71.19
2023-07-21T09:01:13.070Z,72.33
2023-07-21T09:02:04.194Z,70.52
2023-07-21T09:03:02.737Z,71.74
2023-07-21T09:03:53.640Z,72.55
2023-07-21T09:04:45.545Z,73.58
2023-07-21T09:05:36.510Z,70.06
2023-07-21T09:06:27.428Z,71.67
2023-07-21T09:07:18.588Z,71.34
2023-07-21T09:08:19.933Z,73.04
2023-07-21T09:09:18.535Z,72.70
2023-07-21T09:10:10.411Z,73.69
2023-07-21T09:11:02.553Z,74.17
2023-07-21T09:12:12.782Z,73.19
2023-07-21T09:13:04.398Z,73.07
2023-07-21T09:13:58.175Z,74.51
2023-07-21T09:14:49.036Z,74.98
2023-07-21T09:15:39.867Z,73.94
2023-07-21T09:16:34.311Z,74.07
2023-07-21T09:17:25.469Z,70.96
2023-07-21T09:18:16.199Z,71.20
2023-07-21T09:19:07.988Z,70.22
2023-07-21T09:19:58.766Z,71.98
2023-07-21T09:20:50.761Z,72.77
2023-07-21T09:21:41.294Z,73.60
2023-07-21T09:22:32.028Z,73.29
2023-07-21T09:23:24.146Z,73.95
2023-07-21T09:24:14.946Z,71.60
2023-07-21T09:25:06.066Z,73.43
2023-07-21T09:25:59.174Z,74.85
2023-07-21T09:26:50.188Z,75.64
2023-07-21T09:27:53.008Z,73.08
2023-07-21T09:28:44.982Z,71.92
2023-07-21T09:29:35.670Z,72.62
2023-07-21T09:30:26.753Z,71.49
2023-07-21T09:31:17.715Z,69.89
2023-07-21T09:32:16.618Z,72.78
2023-07-21T09:33:07.487Z,71.83
2023-07-21T09:34:06.885Z,72.85
2023-07-21T09:35:02.569Z,70.27
2023-07-21T09:36:17.118Z,72.95
2023-07-21T09:37:08.964Z,72.93
2023-07-21T09:38:00.489Z,73.92
2023-07-21T09:38:51.906Z,74.38
2023-07-21T09:39:44.750Z,74.20
2023-07-21T09:40:43.179Z,73.15
2023-07-21T09:41:35.877Z,73.33
2023-07-21T09:42:28.317Z,73.96
2023-07-21T09:43:19.369Z,73.32
2023-07-21T09:44:11.589Z,73.61
2023-07-21T09:45:02.526Z,72.16
2023-07-21T09:45:55.809Z,71.36
2023-07-21T09:46:47.235Z,73.57
2023-07-21T09:47:45.070Z,72.64
2023-07-21T09:48:38.073Z,72.99
2023-07-21T09:49:28.989Z,73.12
2023-07-21T09:50:19.775Z,71.45
2023-07-21T09:51:11.686Z,70.51
2023-07-21T09:52:03.387Z,69.87
2023-07-21T09:52:56.290Z,72.30
2023-07-21T09:53:50.288Z,73.06
2023-07-21T09:54:44.446Z,73.07
2023-07-21T09:55:42.010Z,71.65
2023-07-21T09:56:38.099Z,72.47
2023-07-21T09:57:33.849Z,74.22
2023-07-21T09:58:27.440Z,72.30
2023-07-21T09:59:19.477Z,73.49
2023-07-21T10:00:15.781Z,73.86
2023-07-21T10:01:07.219Z,75.01
2023-07-21T10:01:58.435Z,74.01
2023-07-21T10:02:54.123Z,74.35
2023-07-21T10:03:46.209Z,74.20
2023-07-21T10:04:37.380Z,73.72
2023-07-21T10:05:27.895Z,73.99
2023-07-21T10:06:19.484Z,72.63
2023-07-21T10:07:13.370Z,71.99
2023-07-21T10:08:05.006Z,73.37
2023-07-21T10:08:57.690Z,72.75
2023-07-21T10:09:50.461Z,71.90
2023-07-21T10:10:41.063Z,73.06
2023-07-21T10:11:32.203Z,73.08
2023-07-21T10:12:23.221Z,71.91
2023-07-21T10:13:14.155Z,72.50
2023-07-21T10:14:04.893Z,73.73
2023-07-21T10:14:55.744Z,73.79
2023-07-21T10:15:48.421Z,73.39
2023-07-21T10:16:39.539Z,73.40
2023-07-21T10:17:43.968Z,72.89
2023-07-21T10:18:35.120Z,75.00
2023-07-21T10:19:30.120Z,72.32
2023-07-21T10:20:20.842Z,72.48
2023-07-21T10:21:12.195Z,72.43
2023-07-21T10:22:03.024Z,71.89
2023-07-21T10:22:57.499Z,71.99
2023-07-21T10:23:52.597Z,74.60
2023-07-21T10:24:46.414Z,73.37
2023-07-21T10:25:56.130Z,73.88
2023-07-21T10:26:47.490Z,73.61
2023-07-21T10:27:38.017Z,73.82
2023-07-21T10:28:44.868Z,72.66
2023-07-21T10:29:38.396Z,71.11
2023-07-21T10:30:29.333Z,72.74
2023-07-21T10:31:23.966Z,72.54
2023-07-21T10:32:15.121Z,74.41
2023-07-21T10:33:21.589Z,73.04
2023-07-21T10:34:18.066Z,74.92
2023-07-21T10:35:31.887Z,74.17
2023-07-21T10:36:22.640Z,72.73
2023-07-21T10:37:14.114Z,72.71
2023-07-21T10:38:14.080Z,71.05
2023-07-21T10:39:12.062Z,72.18
2023-07-21T10:40:08.516Z,71.50
2023-07-21T10:40:59.239Z,71.41
2023-07-21T10:41:55.136Z,72.73
2023-07-21T10:42:46.141Z,70.55
2023-07-21T10:43:37.038Z,69.50
2023-07-21T10:44:38.289Z,69.26
2023-07-21T10:45:29.553Z,70.27
2023-07-21T10:46:20.483Z,71.61
2023-07-21T10:47:17.041Z,70.09
2023-07-21T10:48:16.125Z,69.87
2023-07-21T10:49:10.449Z,69.46
2023-07-21T10:50:01.162Z,69.82
2023-07-21T10:50:55.640Z,70.65
2023-07-21T10:51:48.430Z,71.33
2023-07-21T10:52:39.487Z,71.46
2023-07-21T10:53:30.353Z,69.44
2023-07-21T10:54:21.907Z,69.76
2023-07-21T10:55:19.753Z,68.35
2023-07-21T10:56:10.705Z,69.92
2023-07-21T10:57:02.083Z,70.73
2023-07-21T10:57:54.417Z,69.89
2023-07-21T10:58:45.042Z,70.04
2023-07-21T10:59:37.108Z,69.69
2023-07-21T11:00:27.803Z,68.60
2023-07-21T11:01:21.886Z,69.52
2023-07-21T11:02:12.745Z,71.09
2023-07-21T11:03:05.730Z,68.73
2023-07-21T11:03:56.573Z,68.04
2023-07-21T11:04:47.229Z,68.69
2023-07-21T11:05:38.156Z,68.18
2023-07-21T11:06:29.282Z,68.78
2023-07-21T11:07:19.903Z,69.14
2023-07-21T11:08:29.225Z,69.22
2023-07-21T11:09:22.629Z,68.21
2023-07-21T11:10:13.597Z,69.22
2023-07-21T11:11:04.497Z,69.61
2023-07-21T11:11:58.033Z,68.84
2023-07-21T11:12:52.008Z,67.81
2023-07-21T11:13:43.223Z,68.92
2023-07-21T11:14:34.131Z,67.06
2023-07-21T11:15:24.968Z,68.45
2023-07-21T11:16:15.829Z,69.63
2023-07-21T11:17:07.656Z,68.57
2023-07-21T11:18:05.775Z,68.61
2023-07-21T11:18:56.458Z,68.71
2023-07-21T11:19:47.802Z,68.98
2023-07-21T11:20:38.720Z,68.68
2023-07-21T11:21:29.616Z,70.42
2023-07-21T11:22:24.351Z,70.43
2023-07-21T11:23:15.432Z,67.71
2023-07-21T11:24:11.717Z,70.26
2023-07-21T11:25:11.144Z,69.65
2023-07-21T11:26:12.046Z,68.44
2023-07-21T11:27:10.283Z,68.40
2023-07-21T11:28:07.171Z,68.67
2023-07-21T11:29:00.743Z,68.83
2023-07-21T11:29:53.745Z,67.42
2023-07-21T11:30:49.414Z,69.23
2023-07-21T11:31:40.345Z,70.01
2023-07-21T11:32:31.357Z,69.88